createdAt,value
2022-12-01T00:02:20.482Z,101874.16
2022-12-01T00:04:48.182Z,101872.00
2022-12-01T00:07:14.538Z,101866.53
2022-12-01T00:09:59.537Z,101872.22
2022-12-01T00:12:25.900Z,101860.81
2022-12-01T00:15:00.864Z,101857.84
2022-12-01T00:17:30.459Z,101863.09
2022-12-01T00:19:56.903Z,101856.75
2022-12-01T00:22:23.408Z,101859.31
2022-12-01T00:24:49.810Z,101857.38
2022-12-01T00:27:16.177Z,101856.00
2022-12-01T00:29:42.574Z,101852.81
2022-12-01T00:32:08.990Z,101854.56
2022-12-01T00:34:35.405Z,101858.97
2022-12-01T00:37:01.786Z,101855.44
2022-12-01T00:39:28.233Z,101856.59
2022-12-01T00:41:54.600Z,101859.47
2022-12-01T00:44:20.985Z,101862.59
2022-12-01T00:46:47.361Z,101857.63
2022-12-01T00:49:14.042Z,101863.56
2022-12-01T00:51:40.448Z,101869.94
2022-12-01T00:54:06.860Z,101864.63
2022-12-01T00:56:33.268Z,101861.19
2022-12-01T00:58:59.672Z,101864.56
2022-12-01T01:01:26.129Z,101874.63
2022-12-01T01:03:52.526Z,101869.50
2022-12-01T01:06:18.909Z,101875.53
2022-12-01T01:08:45.300Z,101862.97
2022-12-01T01:11:12.147Z,101868.78
2022-12-01T01:13:38.810Z,101871.53
2022-12-01T01:16:13.245Z,101875.28
2022-12-01T01:18:39.598Z,101867.19
2022-12-01T01:21:08.960Z,101877.22
2022-12-01T01:23:35.344Z,101873.69
2022-12-01T01:26:07.371Z,101871.19
2022-12-01T01:28:33.831Z,101878.59
2022-12-01T01:31:00.467Z,101877.34
2022-12-01T01:33:26.876Z,101880.09
2022-12-01T01:35:53.281Z,101878.13
2022-12-01T01:38:19.695Z,101874.22
2022-12-01T01:40:47.023Z,101879.13
2022-12-01T01:43:18.346Z,101886.69
2022-12-01T01:45:44.780Z,101880.91
2022-12-01T01:48:13.096Z,101885.88
2022-12-01T01:50:39.576Z,101895.78
2022-12-01T01:53:11.059Z,101895.47
2022-12-01T01:55:38.111Z,101896.56
2022-12-01T01:58:07.124Z,101893.66
2022-12-01T02:00:33.540Z,101885.81
2022-12-01T02:03:00.050Z,101891.06
2022-12-01T02:05:32.743Z,101893.56
2022-12-01T02:08:00.382Z,101885.69
2022-12-01T02:10:39.231Z,101892.13
2022-12-01T02:13:17.438Z,101891.41
2022-12-01T02:15:46.339Z,101889.16
2022-12-01T02:18:27.850Z,101885.81
2022-12-01T02:21:22.083Z,101881.81
2022-12-01T02:23:48.344Z,101873.84
2022-12-01T02:26:29.766Z,101878.03
2022-12-01T02:29:11.939Z,101877.47
2022-12-01T02:31:38.190Z,101879.06
2022-12-01T02:34:23.859Z,101877.06
2022-12-01T02:36:54.689Z,101872.50
2022-12-01T02:39:34.009Z,101869.75
2022-12-01T02:42:48.490Z,101866.41
2022-12-01T02:45:20.911Z,101876.81
2022-12-01T02:47:47.664Z,101874.41
2022-12-01T02:50:14.251Z,101875.94
2022-12-01T02:52:41.097Z,101876.66
2022-12-01T02:55:07.776Z,101873.38
2022-12-01T02:57:34.661Z,101880.94
2022-12-01T03:00:01.419Z,101875.31
2022-12-01T03:02:49.554Z,101877.38
2022-12-01T03:05:39.780Z,101878.09
2022-12-01T03:08:45.845Z,101882.13
2022-12-01T03:11:26.923Z,101884.28
2022-12-01T03:13:58.655Z,101880.19
2022-12-01T03:16:39.771Z,101882.59
2022-12-01T03:19:44.592Z,101884.72
2022-12-01T03:22:30.595Z,101882.59
2022-12-01T03:24:57.663Z,101882.19
2022-12-01T03:27:27.926Z,101881.81
2022-12-01T03:29:56.768Z,101879.16
2022-12-01T03:32:29.080Z,101877.97
2022-12-01T03:34:58.832Z,101882.34
2022-12-01T03:37:32.105Z,101888.44
2022-12-01T03:40:00.863Z,101874.84
2022-12-01T03:42:33.343Z,101891.56
2022-12-01T03:45:01.155Z,101883.41
2022-12-01T03:47:32.083Z,101878.84
2022-12-01T03:50:00.191Z,101880.44
2022-12-01T03:52:38.424Z,101880.72
2022-12-01T03:55:11.927Z,101882.81
2022-12-01T03:57:44.216Z,101887.63
2022-12-01T04:00:11.494Z,101890.44
2022-12-01T04:02:38.077Z,101885.47
2022-12-01T04:05:05.849Z,101886.25
2022-12-01T04:07:32.333Z,101885.06
2022-12-01T04:09:58.705Z,101888.69
2022-12-01T04:12:32.641Z,101883.31
2022-12-01T04:15:08.104Z,101890.69
2022-12-01T04:17:34.825Z,101886.13
2022-12-01T04:20:01.287Z,101887.78
2022-12-01T04:22:28.092Z,101891.81
2022-12-01T04:24:54.503Z,101895.09
2022-12-01T04:27:21.214Z,101885.56
2022-12-01T04:29:48.074Z,101878.56
2022-12-01T04:32:14.888Z,101887.69
2022-12-01T04:34:41.273Z,101890.44
2022-12-01T04:37:08.171Z,101894.63
2022-12-01T04:39:34.671Z,101896.09
2022-12-01T04:42:01.097Z,101895.88
2022-12-01T04:44:32.991Z,101892.28
2022-12-01T04:47:01.599Z,101890.09
2022-12-01T04:49:28.411Z,101889.13
2022-12-01T04:51:54.852Z,101889.84
2022-12-01T04:54:21.215Z,101892.78
2022-12-01T04:56:47.942Z,101894.47
2022-12-01T04:59:14.352Z,101895.88
2022-12-01T05:01:40.969Z,101893.00
2022-12-01T05:04:07.879Z,101895.28
2022-12-01T05:06:34.350Z,101890.59
2022-12-01T05:09:01.360Z,101899.06
2022-12-01T05:11:29.938Z,101895.44
2022-12-01T05:13:56.423Z,101893.03
2022-12-01T05:16:25.768Z,101896.00
2022-12-01T05:19:15.339Z,101907.03
2022-12-01T05:21:42.666Z,101899.66
2022-12-01T05:24:10.078Z,101898.06
2022-12-01T05:26:36.489Z,101899.00
2022-12-01T05:29:03.481Z,101906.34
2022-12-01T05:31:30.252Z,101897.88
2022-12-01T05:33:56.734Z,101886.38
2022-12-01T05:36:23.171Z,101906.94
2022-12-01T05:38:49.619Z,101904.19
2022-12-01T05:41:16.097Z,101908.78
2022-12-01T05:43:42.472Z,101910.41
2022-12-01T05:46:08.940Z,101913.34
2022-12-01T05:48:35.384Z,101908.03
2022-12-01T05:51:09.004Z,101911.91
2022-12-01T05:53:35.364Z,101912.63
2022-12-01T05:56:01.736Z,101919.59
2022-12-01T05:58:28.125Z,101917.75
2022-12-01T06:00:54.609Z,101917.97
2022-12-01T06:03:20.977Z,101919.97
2022-12-01T06:05:47.404Z,101917.44
2022-12-01T06:08:13.808Z,101923.28
2022-12-01T06:10:40.167Z,101917.78
2022-12-01T06:13:06.547Z,101919.59
2022-12-01T06:15:32.905Z,101921.44
2022-12-01T06:17:59.621Z,101919.03
2022-12-01T06:20:26.312Z,101919.22
2022-12-01T06:22:52.705Z,101925.25
2022-12-01T06:25:19.150Z,101918.09
2022-12-01T06:27:45.540Z,101926.38
2022-12-01T06:30:12.180Z,101919.78
2022-12-01T06:32:38.548Z,101921.97
2022-12-01T06:35:05.287Z,101927.31
2022-12-01T06:37:31.699Z,101925.66
2022-12-01T06:39:58.045Z,101925.66
2022-12-01T06:42:24.438Z,101924.94
2022-12-01T06:44:50.808Z,101930.22
2022-12-01T06:47:17.175Z,101930.41
2022-12-01T06:49:43.952Z,101936.44
2022-12-01T06:52:10.466Z,101939.00
2022-12-01T06:54:37.416Z,101934.94
2022-12-01T06:57:03.904Z,101937.16
2022-12-01T06:59:30.642Z,101942.16
2022-12-01T07:01:57.785Z,101939.59
2022-12-01T07:04:24.226Z,101942.31
2022-12-01T07:06:50.591Z,101945.81
2022-12-01T07:09:17.029Z,101948.94
2022-12-01T07:11:43.452Z,101946.69
2022-12-01T07:14:17.171Z,101951.16
2022-12-01T07:16:43.584Z,101941.63
2022-12-01T07:19:09.977Z,101945.25
2022-12-01T07:21:36.343Z,101949.50
2022-12-01T07:24:02.716Z,101953.13
2022-12-01T07:26:29.137Z,101957.72
2022-12-01T07:28:55.562Z,101949.28
2022-12-01T07:31:21.971Z,101959.19
2022-12-01T07:33:48.357Z,101956.97
2022-12-01T07:36:14.887Z,101952.22
2022-12-01T07:38:41.604Z,101959.91
2022-12-01T07:41:12.982Z,101959.38
2022-12-01T07:43:39.844Z,101964.88
2022-12-01T07:46:14.692Z,101960.28
2022-12-01T07:48:45.715Z,101958.81
2022-12-01T07:51:16.514Z,101957.19
2022-12-01T07:53:44.109Z,101961.03
2022-12-01T07:56:10.845Z,101957.34
2022-12-01T07:58:37.488Z,101967.03
2022-12-01T08:01:20.433Z,101962.28
2022-12-01T08:03:54.649Z,101968.31
2022-12-01T08:06:21.714Z,101972.94
2022-12-01T08:08:48.694Z,101967.63
2022-12-01T08:11:18.819Z,101970.19
2022-12-01T08:13:45.444Z,101969.06
2022-12-01T08:16:14.270Z,101972.34
2022-12-01T08:18:41.353Z,101973.47
2022-12-01T08:21:09.813Z,101973.25
2022-12-01T08:23:36.246Z,101978.38
2022-12-01T08:26:04.773Z,101973.81
2022-12-01T08:28:31.615Z,101979.28
2022-12-01T08:30:58.014Z,101980.81
2022-12-01T08:33:24.454Z,101982.63
2022-12-01T08:35:50.872Z,101979.09
2022-12-01T08:38:17.363Z,101988.97
2022-12-01T08:40:43.772Z,101985.47
2022-12-01T08:43:15.244Z,101989.75
2022-12-01T08:45:49.406Z,101986.78
2022-12-01T08:48:15.800Z,101988.22
2022-12-01T08:50:42.151Z,101981.84
2022-12-01T08:53:08.519Z,101983.31
2022-12-01T08:55:34.875Z,101977.84
2022-12-01T08:58:01.258Z,101986.22
2022-12-01T09:00:27.711Z,101981.06
2022-12-01T09:02:54.206Z,101983.97
2022-12-01T09:05:20.624Z,101977.44
2022-12-01T09:08:07.076Z,101987.72
2022-12-01T09:10:33.533Z,101986.34
2022-12-01T09:13:00.065Z,101986.53
2022-12-01T09:15:26.445Z,101992.22
2022-12-01T09:17:52.805Z,101986.91
2022-12-01T09:20:19.204Z,101984.91
2022-12-01T09:22:45.621Z,101994.59
2022-12-01T09:25:14.635Z,101993.09
2022-12-01T09:27:41.027Z,101986.84
2022-12-01T09:30:08.015Z,101994.34
2022-12-01T09:32:34.383Z,101984.69
2022-12-01T09:35:00.754Z,101979.09
2022-12-01T09:37:27.132Z,101986.38
2022-12-01T09:39:53.579Z,101988.81
2022-12-01T09:42:32.239Z,101991.00
2022-12-01T09:45:02.780Z,101984.78
2022-12-01T09:47:31.517Z,101983.63
2022-12-01T09:50:07.208Z,101971.69
2022-12-01T09:52:42.723Z,101976.28
2022-12-01T09:55:14.251Z,101982.47
2022-12-01T09:57:41.032Z,101976.66
2022-12-01T10:00:14.190Z,101976.78
2022-12-01T10:02:52.744Z,101980.66
2022-12-01T10:05:21.309Z,101975.31
2022-12-01T10:07:52.769Z,101976.25
2022-12-01T10:10:40.027Z,101966.25
2022-12-01T10:13:17.427Z,101964.63
2022-12-01T10:15:55.958Z,101969.69
2022-12-01T10:18:52.843Z,101969.91
2022-12-01T10:21:37.975Z,101967.50
2022-12-01T10:24:07.399Z,101963.00
2022-12-01T10:26:58.812Z,101964.47
2022-12-01T10:29:48.449Z,101954.19
2022-12-01T10:32:20.182Z,101961.47
2022-12-01T10:34:47.822Z,101958.56
2022-12-01T10:37:18.812Z,101955.59
2022-12-01T10:39:48.038Z,101958.34
2022-12-01T10:42:24.841Z,101951.75
2022-12-01T10:44:51.792Z,101947.75
2022-12-01T10:47:24.250Z,101941.41
2022-12-01T10:49:50.878Z,101944.94
2022-12-01T10:52:34.156Z,101941.88
2022-12-01T10:55:01.263Z,101935.34
2022-12-01T10:57:30.424Z,101935.69
2022-12-01T11:00:05.762Z,101948.22
2022-12-01T11:02:32.836Z,101947.50
2022-12-01T11:05:07.013Z,101943.31
2022-12-01T11:07:45.505Z,101939.63
2022-12-01T11:10:19.776Z,101935.44
2022-12-01T11:12:57.327Z,101934.31
2022-12-01T11:15:53.705Z,101940.84
2022-12-01T11:18:39.340Z,101927.66
2022-12-01T11:21:26.895Z,101932.13
2022-12-01T11:23:55.397Z,101931.50
2022-12-01T11:26:26.606Z,101932.41
2022-12-01T11:28:55.379Z,101930.13
2022-12-01T11:31:25.597Z,101930.41
2022-12-01T11:33:54.460Z,101928.00
2022-12-01T11:36:44.118Z,101927.19
2022-12-01T11:39:41.108Z,101933.75
2022-12-01T11:42:20.102Z,101930.75
2022-12-01T11:44:53.056Z,101927.25
2022-12-01T11:47:23.627Z,101930.25
2022-12-01T11:49:54.324Z,101926.91
2022-12-01T11:52:27.142Z,101922.03
2022-12-01T11:55:06.893Z,101926.94
2022-12-01T11:57:36.996Z,101925.22
2022-12-01T12:00:16.414Z,101918.66
2022-12-01T12:02:56.027Z,101914.59
2022-12-01T12:05:39.085Z,101917.53
2022-12-01T12:08:35.434Z,101916.28
2022-12-01T12:11:12.340Z,101919.06
2022-12-01T12:13:44.603Z,101915.03
2022-12-01T12:16:30.282Z,101912.97
2022-12-01T12:19:33.973Z,101914.22
2022-12-01T12:22:31.913Z,101916.00
2022-12-01T12:25:23.036Z,101920.97
2022-12-01T12:28:27.926Z,101909.00
2022-12-01T12:31:02.325Z,101915.50
2022-12-01T12:33:38.715Z,101915.84
2022-12-01T12:36:55.996Z,101907.16
2022-12-01T12:39:46.154Z,101910.72
2022-12-01T12:42:29.477Z,101911.63
2022-12-01T12:45:01.519Z,101903.97
2022-12-01T12:47:56.526Z,101905.03
2022-12-01T12:50:55.302Z,101900.44
2022-12-01T12:53:25.429Z,101891.25
2022-12-01T12:55:56.349Z,101885.47
2022-12-01T12:58:26.240Z,101893.44
2022-12-01T13:01:12.430Z,101886.59
2022-12-01T13:03:46.743Z,101881.81
2022-12-01T13:06:48.582Z,101893.34
2022-12-01T13:09:22.251Z,101879.88
2022-12-01T13:12:16.257Z,101889.81
2022-12-01T13:14:46.619Z,101882.50
2022-12-01T13:17:25.528Z,101883.00
2022-12-01T13:19:52.046Z,101877.88
2022-12-01T13:22:24.105Z,101879.97
2022-12-01T13:24:50.690Z,101875.41
2022-12-01T13:27:22.848Z,101878.75
2022-12-01T13:29:54.095Z,101871.19
2022-12-01T13:32:40.191Z,101866.06
2022-12-01T13:35:20.341Z,101868.31
2022-12-01T13:37:47.104Z,101861.72
2022-12-01T13:40:22.998Z,101865.72
2022-12-01T13:43:10.805Z,101863.56
2022-12-01T13:45:38.587Z,101864.22
2022-12-01T13:48:05.986Z,101859.53
2022-12-01T13:50:55.055Z,101862.72
2022-12-01T13:53:27.329Z,101853.13
2022-12-01T13:56:02.802Z,101858.00
2022-12-01T13:58:32.495Z,101856.66
2022-12-01T14:01:21.122Z,101856.66
2022-12-01T14:03:57.587Z,101859.22
2022-12-01T14:06:35.960Z,101859.53
2022-12-01T14:09:06.829Z,101864.75
2022-12-01T14:11:34.164Z,101861.84
2022-12-01T14:14:13.046Z,101860.66
2022-12-01T14:16:54.220Z,101857.88
2022-12-01T14:19:32.453Z,101856.66
2022-12-01T14:22:00.486Z,101854.06
2022-12-01T14:24:38.373Z,101861.78
2022-12-01T14:27:05.532Z,101855.66
2022-12-01T14:29:39.745Z,101859.72
2022-12-01T14:32:09.088Z,101859.00
2022-12-01T14:34:37.182Z,101861.91
2022-12-01T14:37:07.739Z,101858.59
2022-12-01T14:39:36.416Z,101866.25
2022-12-01T14:42:43.031Z,101866.59
2022-12-01T14:45:11.785Z,101868.59
2022-12-01T14:47:59.949Z,101875.78
2022-12-01T14:50:49.419Z,101875.41
2022-12-01T14:53:22.211Z,101877.41
2022-12-01T14:55:53.570Z,101871.78
2022-12-01T14:58:24.999Z,101879.88
2022-12-01T15:00:57.976Z,101871.84
2022-12-01T15:03:30.536Z,101881.03
2022-12-01T15:05:58.324Z,101872.13
2022-12-01T15:08:53.382Z,101876.28
2022-12-01T15:11:30.050Z,101868.19
2022-12-01T15:13:57.486Z,101864.13
2022-12-01T15:16:28.320Z,101866.25
2022-12-01T15:18:54.828Z,101878.59
2022-12-01T15:21:28.516Z,101885.81
2022-12-01T15:24:00.924Z,101885.13
2022-12-01T15:26:36.530Z,101892.81
2022-12-01T15:29:19.204Z,101900.72
2022-12-01T15:31:48.706Z,101908.78
2022-12-01T15:34:28.714Z,101894.13
2022-12-01T15:36:55.412Z,101906.59
2022-12-01T15:39:36.325Z,101902.75
2022-12-01T15:42:03.690Z,101900.91
2022-12-01T15:44:35.696Z,101893.19
2022-12-01T15:47:35.839Z,101910.03
2022-12-01T15:50:03.778Z,101908.25
2022-12-01T15:52:30.324Z,101897.03
2022-12-01T15:55:00.660Z,101895.56
2022-12-01T15:57:27.074Z,101900.91
2022-12-01T15:59:55.502Z,101884.91
2022-12-01T16:02:30.490Z,101884.38
2022-12-01T16:05:15.151Z,101874.31
2022-12-01T16:08:12.103Z,101881.91
2022-12-01T16:10:36.787Z,101883.41
2022-12-01T16:13:37.081Z,101871.13
2022-12-01T16:16:30.578Z,101864.72
2022-12-01T16:19:17.167Z,101863.81
2022-12-01T16:21:47.909Z,101862.13
2022-12-01T16:24:21.329Z,101874.97
2022-12-01T16:26:50.836Z,101870.59
2022-12-01T16:29:24.227Z,101878.47
2022-12-01T16:32:18.766Z,101877.91
2022-12-01T16:34:46.244Z,101875.91
2022-12-01T16:37:13.500Z,101889.81
2022-12-01T16:39:39.871Z,101887.28
2022-12-01T16:42:06.289Z,101875.41
2022-12-01T16:44:32.722Z,101876.47
2022-12-01T16:46:59.133Z,101885.22
2022-12-01T16:49:25.542Z,101882.91
2022-12-01T16:51:56.769Z,101888.72
2022-12-01T16:54:23.851Z,101885.09
2022-12-01T16:56:50.888Z,101894.44
2022-12-01T16:59:17.241Z,101901.41
2022-12-01T17:01:43.686Z,101899.22
2022-12-01T17:04:10.129Z,101902.50
2022-12-01T17:06:38.235Z,101902.16
2022-12-01T17:09:04.722Z,101902.50
2022-12-01T17:11:31.102Z,101892.19
2022-12-01T17:13:57.472Z,101896.81
2022-12-01T17:16:23.887Z,101900.66
2022-12-01T17:18:50.305Z,101909.47
2022-12-01T17:21:16.849Z,101906.88
2022-12-01T17:23:43.228Z,101914.22
2022-12-01T17:26:12.434Z,101918.59
2022-12-01T17:28:39.277Z,101911.66
2022-12-01T17:31:06.673Z,101909.78
2022-12-01T17:33:33.414Z,101913.25
2022-12-01T17:36:06.556Z,101910.28
2022-12-01T17:38:37.929Z,101914.41
2022-12-01T17:41:07.644Z,101916.41
2022-12-01T17:43:35.560Z,101927.38
2022-12-01T17:46:02.588Z,101921.53
2022-12-01T17:48:30.115Z,101924.25
2022-12-01T17:50:58.615Z,101924.03
2022-12-01T17:53:24.961Z,101927.72
2022-12-01T17:55:51.350Z,101922.97
2022-12-01T17:58:21.304Z,101927.88
2022-12-01T18:00:51.494Z,101927.75
2022-12-01T18:03:18.620Z,101929.59
2022-12-01T18:05:45.348Z,101923.72
2022-12-01T18:08:11.753Z,101923.34
2022-12-01T18:10:38.257Z,101924.09
2022-12-01T18:13:04.633Z,101927.75
2022-12-01T18:15:34.654Z,101929.97
2022-12-01T18:18:01.316Z,101925.56
2022-12-01T18:20:27.703Z,101928.84
2022-12-01T18:22:54.139Z,101934.72
2022-12-01T18:25:20.507Z,101927.03
2022-12-01T18:27:46.974Z,101930.88
2022-12-01T18:30:13.894Z,101934.34
2022-12-01T18:32:40.294Z,101925.94
2022-12-01T18:35:06.893Z,101930.69
2022-12-01T18:37:35.461Z,101930.09
2022-12-01T18:40:01.828Z,101928.84
2022-12-01T18:42:28.193Z,101929.59
2022-12-01T18:44:54.540Z,101933.97
2022-12-01T18:47:20.899Z,101932.34
2022-12-01T18:49:47.258Z,101931.03
2022-12-01T18:52:13.636Z,101931.75
2022-12-01T18:54:40.044Z,101928.44
2022-12-01T18:57:06.451Z,101927.19
2022-12-01T18:59:32.832Z,101922.59
2022-12-01T19:01:59.248Z,101925.53
2022-12-01T19:04:25.684Z,101925.53
2022-12-01T19:06:52.095Z,101924.06
2022-12-01T19:09:18.452Z,101931.00
2022-12-01T19:11:45.057Z,101926.44
2022-12-01T19:14:15.689Z,101923.00
2022-12-01T19:16:42.208Z,101918.41
2022-12-01T19:19:09.570Z,101920.25
2022-12-01T19:21:35.974Z,101910.56
2022-12-01T19:24:02.368Z,101921.00
2022-12-01T19:26:28.796Z,101918.44
2022-12-01T19:28:55.183Z,101920.25
2022-12-01T19:31:23.740Z,101915.69
2022-12-01T19:33:50.809Z,101925.91
2022-12-01T19:36:19.481Z,101912.75
2022-12-01T19:38:47.102Z,101909.78
2022-12-01T19:41:14.274Z,101912.22
2022-12-01T19:43:42.135Z,101915.69
2022-12-01T19:46:13.759Z,101910.03
2022-12-01T19:48:40.695Z,101916.25
2022-12-01T19:51:07.396Z,101907.28
2022-12-01T19:53:34.347Z,101910.91
2022-12-01T19:56:02.807Z,101916.22
2022-12-01T19:58:29.421Z,101914.91
2022-12-01T20:01:22.071Z,101916.41
2022-12-01T20:03:50.746Z,101914.41
2022-12-01T20:06:19.402Z,101916.75
2022-12-01T20:08:45.829Z,101923.19
2022-12-01T20:11:13.031Z,101922.25
2022-12-01T20:13:40.972Z,101907.09
2022-12-01T20:16:08.648Z,101913.47
2022-12-01T20:18:36.061Z,101905.44
2022-12-01T20:21:10.725Z,101914.56
2022-12-01T20:23:37.634Z,101905.25
2022-12-01T20:26:06.656Z,101903.94
2022-12-01T20:28:34.030Z,101901.75
2022-12-01T20:31:00.563Z,101906.91
2022-12-01T20:33:27.763Z,101905.44
2022-12-01T20:35:54.579Z,101903.59
2022-12-01T20:38:27.027Z,101893.72
2022-12-01T20:40:53.791Z,101901.22
2022-12-01T20:43:20.215Z,101896.47
2022-12-01T20:45:46.634Z,101901.97
2022-12-01T20:48:13.227Z,101906.88
2022-12-01T20:50:39.586Z,101904.50
2022-12-01T20:53:05.980Z,101902.09
2022-12-01T20:55:32.400Z,101899.91
2022-12-01T20:57:58.751Z,101904.97
2022-12-01T21:00:25.136Z,101908.31
2022-12-01T21:02:51.561Z,101909.25
2022-12-01T21:05:18.058Z,101905.38
2022-12-01T21:07:44.497Z,101910.63
2022-12-01T21:10:13.507Z,101909.19
2022-12-01T21:13:04.616Z,101910.50
2022-12-01T21:15:41.729Z,101905.03
2022-12-01T21:18:22.640Z,101905.38
2022-12-01T21:20:50.612Z,101904.69
2022-12-01T21:23:17.192Z,101909.38
2022-12-01T21:25:43.998Z,101903.53
2022-12-01T21:28:18.709Z,101902.78
2022-12-01T21:30:49.626Z,101899.66
2022-12-01T21:33:31.294Z,101899.13
2022-12-01T21:35:59.084Z,101897.47
2022-12-01T21:38:25.465Z,101895.69
2022-12-01T21:40:51.837Z,101899.50
2022-12-01T21:43:23.626Z,101895.09
2022-12-01T21:45:52.417Z,101895.47
2022-12-01T21:48:22.954Z,101888.72
2022-12-01T21:50:56.812Z,101877.59
2022-12-01T21:53:27.511Z,101879.78
2022-12-01T21:55:56.027Z,101879.78
2022-12-01T21:58:28.815Z,101878.50
2022-12-01T22:00:57.444Z,101869.19
2022-12-01T22:03:39.888Z,101873.97
2022-12-01T22:06:28.695Z,101869.19
2022-12-01T22:08:57.906Z,101872.84
2022-12-01T22:11:29.074Z,101864.47
2022-12-01T22:14:01.357Z,101873.38
2022-12-01T22:16:31.612Z,101861.88
2022-12-01T22:19:02.739Z,101861.88
2022-12-01T22:21:34.964Z,101863.91
2022-12-01T22:24:10.399Z,101862.25
2022-12-01T22:26:38.009Z,101863.16
2022-12-01T22:29:17.309Z,101865.16
2022-12-01T22:31:43.671Z,101860.69
2022-12-01T22:34:11.759Z,101864.16
2022-12-01T22:36:38.142Z,101867.31
2022-12-01T22:39:21.390Z,101863.25
2022-12-01T22:41:58.600Z,101865.28
2022-12-01T22:44:26.795Z,101865.81
2022-12-01T22:46:54.017Z,101869.81
2022-12-01T22:49:22.701Z,101863.31
2022-12-01T22:52:02.046Z,101865.88
2022-12-01T22:54:32.368Z,101863.25
2022-12-01T22:57:08.755Z,101869.09
2022-12-01T22:59:37.729Z,101860.41
2022-12-01T23:02:21.157Z,101851.97
2022-12-01T23:04:48.882Z,101853.47
2022-12-01T23:07:28.301Z,101844.19
2022-12-01T23:09:57.902Z,101841.41
2022-12-01T23:12:27.265Z,101842.50
2022-12-01T23:14:58.468Z,101833.56
2022-12-01T23:17:30.221Z,101832.47
2022-12-01T23:20:25.727Z,101833.38
2022-12-01T23:22:56.418Z,101833.00
2022-12-01T23:25:23.739Z,101830.06
2022-12-01T23:27:51.674Z,101823.84
2022-12-01T23:30:19.919Z,101826.78
2022-12-01T23:33:02.306Z,101827.28
2022-12-01T23:35:28.583Z,101828.16
2022-12-01T23:37:55.008Z,101824.66
2022-12-01T23:40:29.108Z,101826.31
2022-12-01T23:42:59.263Z,101813.88
2022-12-01T23:45:27.257Z,101810.25
2022-12-01T23:47:55.441Z,101818.97
2022-12-01T23:50:23.863Z,101811.31
2022-12-01T23:52:50.608Z,101819.72
2022-12-01T23:55:21.821Z,101813.16
2022-12-01T23:57:48.719Z,101812.41
